Terminal Aerodrome Forecast
Issued by NWS Grand Forks, ND

Home | Current Version | Previous Version | Graphics & Text | Print | Product List | Glossary On
Versions: 1 2 3 4 5 6 7 8 9 10 11 12 13 14 15 16 17 18
000
FTUS43 KFGF 291100
TAFFAR
TAF
KFAR 291121Z 2912/3012 34017G27KT P6SM BKN040
      TEMPO 2912/2915 BKN015
     FM291800 34017G27KT P6SM SCT020
      TEMPO 2918/2921 BKN025
     FM300000 34007KT P6SM SCT250=

USA.gov is the U.S. government's official web portal to all federal, state and local government web resources and services.